Accueil
METAR-TAF:

METAR-TAF

Aéroports :

Aéroport international de Yangon

Rangoon, Birmanie

latitude: 16-46N, longitude: 096-10E, altitude: 14 m

Observation

Le bulletin a été fait il y a 1 heure et 14 minutes, à 18:30 UTC
Vent 3 kt de sud-ouest
Température 26°C
Humidité 84%
Pression 1007 hPa
Visibilité: 7000 m
Nuages épars à une hauteur de 21000 ft

METAR: VYYY 031830Z 22003KT 7000 SCT210 26/23 Q1007

Heure: 02:14 (19:44 UTC)

Prévision

Le bulletin a été fait il y a 8 heures et 44 minutes, à 11:00 UTC
Prévision valable du 03 à 12 UTC au 04 à 12 UTC
Vent 5 kt de ouest
Visibilité: 8000 m
Temporairement
du 03 à 12 UTC au 03 à 18 UTC
Vent 7 kt de ouest
Visibilité: 7000 m
Nuages épars à une hauteur de 2500 ft
Evoluant progressivement
du 03 à 22 UTC au 03 à 24 UTC
Vent 3 kt de ouest
Visibilité: 5000 m
brume,

TAF: VYYY 031100Z 0312/0412 26005KT 8000 NSC TEMPO 0312/0318 26007KT 7000 SCT025 BECMG 0322/0324 26003KT 5000 BR

Observations et prévisions météorologiques de plus de 4000 aéroports (messages METAR et TAF).

Les stations disponibles sont représentées par des disques jaunes et rouges sur la carte.

Passer la souris dessus pour voir le nom de la station.

Cliquer dessus pour voir les observations et prévisions météorologiques.

Pour changer de carte: cliquez sur les boutons verts avec une croix noire pour zoomer, sur le bouton vert avec un tiret pour effectuer un zoom arrière, ou sur les flèches vertes pour les cartes adjacentes.


METAR-TAF: